Time;durP1;ratioP1;P1;durP2;ratioP2;P2;SDS_P1;SDS_P2;PMS_P1;PMS_P2;Temp;Humidity;BMP_temperature;BMP_pressure;BME280_temperature;BME280_humidity;BME280_pressure;Samples;Min_cycle;Max_cycle;Signal;HPM_P1;HPM_P2
2021/08/17 00:00:44;;;;;;;12.70;11.40;;;26.30;98.90;;;;;;5075775;28;20027;-51
2021/08/17 00:03:11;;;;;;;13.75;11.52;;;26.20;98.90;;;;;;5078176;28;20028;-56
2021/08/17 00:05:39;;;;;;;12.55;11.35;;;26.20;98.90;;;;;;5084835;28;20079;-55
2021/08/17 00:08:06;;;;;;;15.57;10.93;;;26.30;98.90;;;;;;5084768;28;20119;-49
2021/08/17 00:10:33;;;;;;;13.55;11.48;;;26.20;98.90;;;;;;5081783;28;20032;-58
2021/08/17 00:13:00;;;;;;;13.60;12.20;;;26.20;98.90;;;;;;5072262;28;20043;-61
2021/08/17 00:15:27;;;;;;;14.43;11.85;;;26.20;98.90;;;;;;5084265;28;20055;-53
2021/08/17 00:17:54;;;;;;;16.05;12.35;;;26.20;99.00;;;;;;5083381;28;20316;-56
2021/08/17 00:20:21;;;;;;;15.70;13.48;;;26.20;98.90;;;;;;5081899;28;20337;-56
2021/08/17 00:22:48;;;;;;;16.10;14.27;;;26.20;98.90;;;;;;5061550;28;20245;-53
2021/08/17 00:25:15;;;;;;;19.23;15.43;;;26.10;98.90;;;;;;5063059;28;20021;-51
2021/08/17 00:27:41;;;;;;;24.15;15.90;;;26.20;98.90;;;;;;5063003;28;20062;-56
2021/08/17 00:30:09;;;;;;;21.33;16.23;;;26.20;98.90;;;;;;5064454;28;20084;-55
2021/08/17 00:32:36;;;;;;;17.30;15.40;;;26.20;98.90;;;;;;5063871;28;20093;-57
2021/08/17 00:35:03;;;;;;;20.55;16.20;;;26.20;98.90;;;;;;5064243;28;20035;-57
2021/08/17 00:37:31;;;;;;;17.15;15.45;;;26.20;99.00;;;;;;5063960;28;20009;-54
2021/08/17 00:40:00;;;;;;;20.25;15.32;;;26.20;98.90;;;;;;5063968;28;20138;-54
2021/08/17 00:42:41;;;;;;;18.02;15.80;;;26.20;98.90;;;;;;5029730;28;20025;-53
2021/08/17 00:45:20;;;;;;;17.35;15.63;;;26.20;98.90;;;;;;5066198;28;20032;-51
2021/08/17 00:47:48;;;;;;;22.60;19.15;;;26.10;98.90;;;;;;5074137;28;20062;-53
2021/08/17 00:50:14;;;;;;;22.48;20.20;;;26.20;99.00;;;;;;5065993;28;20025;-51
2021/08/17 00:52:42;;;;;;;29.30;26.20;;;26.10;99.00;;;;;;5066760;28;20095;-53
2021/08/17 00:55:10;;;;;;;30.88;26.70;;;26.10;99.00;;;;;;5076122;28;20039;-61
2021/08/17 00:57:44;;;;;;;32.42;25.35;;;26.10;99.30;;;;;;5063483;28;20085;-55
2021/08/17 01:00:12;;;;;;;26.55;22.90;;;26.10;99.10;;;;;;5066706;28;20027;-53
2021/08/17 01:02:38;;;;;;;27.48;21.55;;;26.10;99.10;;;;;;5066536;28;20066;-54
2021/08/17 01:05:07;;;;;;;30.38;21.80;;;26.10;99.20;;;;;;5063941;28;20025;-51
2021/08/17 01:07:33;;;;;;;23.98;21.48;;;26.10;99.10;;;;;;5063791;28;20020;-55
2021/08/17 01:10:00;;;;;;;25.25;20.30;;;26.10;99.20;;;;;;5063928;28;20021;-49
2021/08/17 01:12:27;;;;;;;24.45;18.95;;;26.00;99.10;;;;;;5063691;28;20059;-50
2021/08/17 01:14:53;;;;;;;18.83;16.92;;;26.00;99.10;;;;;;5063547;28;20045;-59
2021/08/17 01:17:21;;;;;;;23.95;17.38;;;26.00;99.00;;;;;;5063410;28;20021;-54
2021/08/17 01:19:51;;;;;;;22.73;16.65;;;26.00;99.00;;;;;;5063859;28;20150;-48
2021/08/17 01:22:18;;;;;;;21.85;18.33;;;26.00;99.00;;;;;;5063585;28;20019;-55
2021/08/17 01:24:45;;;;;;;21.88;18.23;;;26.00;99.00;;;;;;5063602;28;20033;-52
2021/08/17 01:27:12;;;;;;;22.67;17.15;;;26.00;99.00;;;;;;5063541;28;20024;-56
2021/08/17 01:29:40;;;;;;;22.30;17.73;;;26.00;99.10;;;;;;5063842;28;20079;-52
2021/08/17 01:32:08;;;;;;;28.73;17.17;;;26.00;99.00;;;;;;5063378;28;20329;-51
2021/08/17 01:34:35;;;;;;;21.45;16.38;;;26.00;99.00;;;;;;5062305;28;20028;-52
2021/08/17 01:37:01;;;;;;;18.08;13.75;;;26.00;99.00;;;;;;5063471;28;20055;-55
2021/08/17 01:39:28;;;;;;;19.00;12.60;;;25.90;98.90;;;;;;5068899;28;20024;-58
2021/08/17 01:41:55;;;;;;;18.17;12.02;;;26.00;98.90;;;;;;5083853;28;20289;-55
2021/08/17 01:44:23;;;;;;;16.50;11.55;;;25.90;99.10;;;;;;5077044;28;20047;-53
2021/08/17 01:46:50;;;;;;;16.55;12.02;;;25.90;98.90;;;;;;5072395;28;20013;-50
2021/08/17 01:49:17;;;;;;;15.45;11.43;;;25.90;98.90;;;;;;5067554;28;20052;-56
2021/08/17 01:51:50;;;;;;;14.63;10.45;;;25.90;99.00;;;;;;5067265;28;20029;-50
2021/08/17 01:54:20;;;;;;;17.98;11.15;;;25.90;98.90;;;;;;5067081;28;20266;-51
2021/08/17 01:56:47;;;;;;;19.95;10.38;;;25.90;98.90;;;;;;5067105;28;20027;-52
2021/08/17 01:59:14;;;;;;;22.23;11.00;;;25.90;98.90;;;;;;5067084;28;20021;-48
2021/08/17 02:01:44;;;;;;;16.90;10.68;;;25.90;98.90;;;;;;5066864;28;20013;-47
2021/08/17 02:04:11;;;;;;;14.70;10.13;;;25.90;98.90;;;;;;5076606;28;20036;-54
2021/08/17 02:06:37;;;;;;;15.13;10.93;;;25.90;98.90;;;;;;5086844;28;20062;-49
2021/08/17 02:09:04;;;;;;;15.32;10.73;;;25.90;98.90;;;;;;5078988;28;20024;-56
2021/08/17 02:11:31;;;;;;;12.55;9.88;;;25.80;98.90;;;;;;5080169;28;20123;-50
2021/08/17 02:13:57;;;;;;;12.23;9.20;;;25.80;98.90;;;;;;5085784;28;20029;-46
2021/08/17 02:16:24;;;;;;;12.52;10.20;;;25.80;98.90;;;;;;5086428;28;20043;-51
2021/08/17 02:18:51;;;;;;;13.10;9.93;;;25.80;98.90;;;;;;5077890;28;20070;-49
2021/08/17 02:21:17;;;;;;;14.07;9.77;;;25.80;98.90;;;;;;5075866;28;20020;-50
2021/08/17 02:23:44;;;;;;;14.25;10.25;;;25.80;99.00;;;;;;5076995;28;20008;-50
2021/08/17 02:26:10;;;;;;;11.18;9.55;;;25.80;99.00;;;;;;5075621;28;20021;-53
2021/08/17 02:28:37;;;;;;;16.13;10.45;;;25.80;99.00;;;;;;5075717;28;20013;-52
2021/08/17 02:31:04;;;;;;;16.30;10.63;;;25.80;99.00;;;;;;5079339;28;20051;-51
2021/08/17 02:33:30;;;;;;;16.02;14.43;;;25.80;99.00;;;;;;5079464;28;20040;-52
2021/08/17 02:35:57;;;;;;;14.88;11.07;;;25.80;99.00;;;;;;5075063;28;20040;-53
2021/08/17 02:38:24;;;;;;;24.63;21.25;;;25.80;98.90;;;;;;5086172;28;20111;-53
2021/08/17 02:40:50;;;;;;;30.65;24.45;;;25.80;98.90;;;;;;5086768;28;20059;-56
2021/08/17 02:43:23;;;;;;;33.72;24.38;;;25.80;98.90;;;;;;5082414;28;20029;-51
2021/08/17 02:45:52;;;;;;;23.95;18.45;;;25.80;98.90;;;;;;5066524;28;20036;-52
2021/08/17 02:48:19;;;;;;;22.60;17.45;;;25.80;98.90;;;;;;5065968;28;20045;-48
2021/08/17 02:50:45;;;;;;;25.13;16.70;;;25.80;98.80;;;;;;5066492;28;20301;-55
2021/08/17 02:53:12;;;;;;;19.92;15.45;;;25.80;98.90;;;;;;5065780;28;20324;-51
2021/08/17 02:55:39;;;;;;;19.95;13.68;;;25.80;98.90;;;;;;5066036;28;20025;-50
2021/08/17 02:58:07;;;;;;;17.33;12.45;;;25.80;98.90;;;;;;5069502;28;20093;-54
2021/08/17 03:00:35;;;;;;;17.98;12.30;;;25.80;98.90;;;;;;5083419;28;20042;-52
2021/08/17 03:03:03;;;;;;;13.38;10.88;;;25.80;98.80;;;;;;5079522;28;20088;-50
2021/08/17 03:05:29;;;;;;;14.73;10.63;;;25.80;98.90;;;;;;5071483;28;20100;-52
2021/08/17 03:08:05;;;;;;;13.35;9.85;;;25.80;98.80;;;;;;5065724;28;20024;-52
2021/08/17 03:10:35;;;;;;;14.75;9.98;;;25.80;98.80;;;;;;5066216;28;20040;-50
2021/08/17 03:13:03;;;;;;;15.52;10.02;;;25.80;98.90;;;;;;5070771;28;20024;-50
2021/08/17 03:15:32;;;;;;;10.63;9.15;;;25.70;98.80;;;;;;5067904;28;20091;-55
2021/08/17 03:18:03;;;;;;;12.02;8.88;;;25.80;98.80;;;;;;5065341;28;20213;-52
2021/08/17 03:20:31;;;;;;;13.48;8.95;;;25.80;99.10;;;;;;5065910;28;20359;-57
2021/08/17 03:22:57;;;;;;;14.35;8.80;;;25.70;98.80;;;;;;5065157;28;20067;-50
2021/08/17 03:25:26;;;;;;;10.70;8.27;;;25.80;98.80;;;;;;5085099;28;20083;-53
2021/08/17 03:27:53;;;;;;;11.75;7.63;;;25.70;98.70;;;;;;5085288;28;20024;-54
2021/08/17 03:30:22;;;;;;;17.05;7.95;;;25.80;98.70;;;;;;5066628;28;20060;-55
2021/08/17 03:32:49;;;;;;;17.05;7.18;;;25.80;98.60;;;;;;5065359;28;20027;-54
2021/08/17 03:35:16;;;;;;;14.63;7.80;;;25.70;98.50;;;;;;5065170;28;20041;-52
2021/08/17 03:37:43;;;;;;;10.07;6.60;;;25.70;98.50;;;;;;5065238;28;20074;-50
2021/08/17 03:40:13;;;;;;;11.05;6.35;;;25.70;98.30;;;;;;5065352;28;20028;-50
2021/08/17 03:42:41;;;;;;;14.00;6.47;;;25.70;98.30;;;;;;5065138;28;20024;-54
2021/08/17 03:45:10;;;;;;;14.50;6.38;;;25.70;98.10;;;;;;5064910;28;20187;-50
2021/08/17 03:47:37;;;;;;;10.32;5.78;;;25.70;98.10;;;;;;5063822;28;20016;-54
2021/08/17 03:50:08;;;;;;;9.18;6.25;;;25.70;98.20;;;;;;5063680;28;20033;-53
2021/08/17 03:52:35;;;;;;;15.55;6.07;;;25.70;98.10;;;;;;5064865;28;20016;-51
2021/08/17 03:55:08;;;;;;;8.40;5.75;;;25.70;98.10;;;;;;5076736;28;20068;-51
2021/08/17 03:57:35;;;;;;;8.95;5.82;;;25.70;98.00;;;;;;5084677;28;20332;-50
2021/08/17 04:00:03;;;;;;;11.32;5.80;;;25.60;98.10;;;;;;5078518;28;20074;-56
2021/08/17 04:02:30;;;;;;;10.38;5.40;;;25.60;98.00;;;;;;5076854;28;20016;-52
2021/08/17 04:04:57;;;;;;;8.60;5.55;;;25.60;98.00;;;;;;5083972;28;20056;-51
2021/08/17 04:07:23;;;;;;;10.25;5.10;;;25.60;98.00;;;;;;5083898;28;20087;-52
2021/08/17 04:09:50;;;;;;;14.70;5.70;;;25.60;98.00;;;;;;5084617;28;20280;-50
2021/08/17 04:12:16;;;;;;;13.13;5.85;;;25.70;98.10;;;;;;5084662;28;20028;-55
2021/08/17 04:14:43;;;;;;;7.57;5.53;;;25.60;97.90;;;;;;5070311;28;20104;-51
2021/08/17 04:17:09;;;;;;;9.65;5.25;;;25.60;98.00;;;;;;5064090;28;20017;-54
2021/08/17 04:19:39;;;;;;;10.85;5.63;;;25.60;98.00;;;;;;5064247;28;20024;-52
2021/08/17 04:22:06;;;;;;;15.10;5.50;;;25.60;98.00;;;;;;5064198;28;20012;-55
2021/08/17 04:24:33;;;;;;;7.90;5.63;;;25.60;98.00;;;;;;5064219;28;20166;-50
2021/08/17 04:26:59;;;;;;;6.72;5.00;;;25.60;98.10;;;;;;5063919;28;20021;-55
2021/08/17 04:29:26;;;;;;;8.35;5.53;;;25.60;98.10;;;;;;5064124;28;20021;-50
2021/08/17 04:31:53;;;;;;;10.23;5.57;;;25.60;98.10;;;;;;5070905;28;20028;-51
2021/08/17 04:34:19;;;;;;;9.13;5.28;;;25.60;98.10;;;;;;5074928;28;20320;-54
2021/08/17 04:36:47;;;;;;;10.68;5.47;;;25.60;98.10;;;;;;5072099;28;20321;-53
2021/08/17 04:39:15;;;;;;;12.93;5.97;;;25.60;98.20;;;;;;5073058;28;20094;-49
2021/08/17 04:41:42;;;;;;;11.93;5.93;;;25.60;98.20;;;;;;5063975;28;20217;-50
2021/08/17 04:44:09;;;;;;;12.85;5.90;;;25.60;98.30;;;;;;5063783;28;20032;-54
2021/08/17 04:46:35;;;;;;;10.48;5.70;;;25.60;98.30;;;;;;5063584;28;20021;-51
2021/08/17 04:49:02;;;;;;;8.25;5.80;;;25.60;98.30;;;;;;5071462;28;20024;-53
2021/08/17 04:51:29;;;;;;;12.13;6.45;;;25.60;98.30;;;;;;5083731;28;20411;-54
2021/08/17 04:53:56;;;;;;;10.73;6.28;;;25.60;98.30;;;;;;5083850;28;20301;-58
2021/08/17 04:56:22;;;;;;;11.25;6.07;;;25.60;98.20;;;;;;5074357;28;20044;-51
2021/08/17 04:58:50;;;;;;;11.07;5.90;;;25.60;98.20;;;;;;5074282;28;20138;-55
2021/08/17 05:01:18;;;;;;;12.57;5.93;;;25.60;98.20;;;;;;5072919;28;20024;-58
2021/08/17 05:03:44;;;;;;;14.48;6.45;;;25.60;98.20;;;;;;5073887;28;20299;-53
2021/08/17 05:06:11;;;;;;;8.93;6.20;;;25.50;98.10;;;;;;5066842;28;20021;-52
2021/08/17 05:08:41;;;;;;;14.77;7.50;;;25.60;98.20;;;;;;5063210;28;20037;-51
2021/08/17 05:11:08;;;;;;;13.20;8.07;;;25.50;98.20;;;;;;5071993;28;20028;-53
2021/08/17 05:13:34;;;;;;;15.63;8.23;;;25.50;98.20;;;;;;5083401;28;20008;-53
2021/08/17 05:16:01;;;;;;;16.55;7.82;;;25.60;98.30;;;;;;5083118;28;20407;-49
2021/08/17 05:18:32;;;;;;;12.90;6.80;;;25.60;98.20;;;;;;5079774;28;20367;-55
2021/08/17 05:21:00;;;;;;;11.90;6.60;;;25.60;98.20;;;;;;5068595;28;20317;-55
2021/08/17 05:23:26;;;;;;;15.27;6.55;;;25.50;98.10;;;;;;5081331;28;20027;-48
2021/08/17 05:25:53;;;;;;;13.13;6.97;;;25.50;98.10;;;;;;5083897;28;20330;-54
2021/08/17 05:28:21;;;;;;;13.23;7.20;;;25.50;98.10;;;;;;5083693;28;20313;-58
2021/08/17 05:30:49;;;;;;;12.27;7.50;;;25.50;98.10;;;;;;5084019;28;20292;-55
2021/08/17 05:33:16;;;;;;;12.55;7.32;;;25.50;98.10;;;;;;5083262;28;20213;-61
2021/08/17 05:35:46;;;;;;;11.98;7.55;;;25.50;98.10;;;;;;5083741;28;20091;-51
2021/08/17 05:38:12;;;;;;;15.07;7.30;;;25.50;98.20;;;;;;5083404;28;20024;-60
2021/08/17 05:40:39;;;;;;;14.75;7.00;;;25.50;98.10;;;;;;5083779;28;20020;-52
2021/08/17 05:43:06;;;;;;;12.07;6.45;;;25.50;98.20;;;;;;5083549;28;20012;-54
2021/08/17 05:45:33;;;;;;;12.65;6.70;;;25.50;98.20;;;;;;5083782;28;20066;-54
2021/08/17 05:48:00;;;;;;;10.63;6.53;;;25.50;98.20;;;;;;5083160;28;20029;-58
2021/08/17 05:50:26;;;;;;;11.32;6.35;;;25.50;98.20;;;;;;5082935;28;20033;-51
2021/08/17 05:52:53;;;;;;;10.48;5.70;;;25.50;98.20;;;;;;5083254;28;20265;-54
2021/08/17 05:55:20;;;;;;;12.90;6.13;;;25.50;98.20;;;;;;5083570;28;20039;-57
2021/08/17 05:57:57;;;;;;;12.63;5.35;;;25.50;98.10;;;;;;5083420;28;20036;-50
2021/08/17 06:00:24;;;;;;;11.00;5.75;;;25.50;98.10;;;;;;5083508;28;20108;-48
2021/08/17 06:02:51;;;;;;;11.10;5.45;;;25.50;98.20;;;;;;5083085;28;20016;-46
2021/08/17 06:05:17;;;;;;;10.05;5.88;;;25.40;98.10;;;;;;5083309;28;20225;-49
2021/08/17 06:07:51;;;;;;;9.07;5.40;;;25.50;98.20;;;;;;5083038;28;20213;-53
2021/08/17 06:10:18;;;;;;;9.93;5.85;;;25.40;98.10;;;;;;5083384;28;20033;-57
2021/08/17 06:12:45;;;;;;;10.68;5.50;;;25.50;98.20;;;;;;5083004;28;20024;-54
2021/08/17 06:15:15;;;;;;;8.35;5.78;;;25.50;98.20;;;;;;5082833;28;20045;-61
2021/08/17 06:17:42;;;;;;;10.88;5.30;;;25.50;98.20;;;;;;5082941;28;20051;-55
2021/08/17 06:20:10;;;;;;;12.10;6.03;;;25.50;98.20;;;;;;5083499;28;20029;-47
2021/08/17 06:22:36;;;;;;;14.02;6.07;;;25.50;98.20;;;;;;5082798;28;20021;-55
2021/08/17 06:25:03;;;;;;;12.70;5.72;;;25.50;98.20;;;;;;5083226;28;20024;-55
2021/08/17 06:27:30;;;;;;;13.23;5.82;;;25.40;98.20;;;;;;5082934;28;20309;-56
2021/08/17 06:29:57;;;;;;;10.82;5.30;;;25.40;98.20;;;;;;5085127;28;20036;-56
2021/08/17 06:32:23;;;;;;;15.52;5.72;;;25.40;98.30;;;;;;5086484;28;20016;-56
2021/08/17 06:34:50;;;;;;;10.75;5.80;;;25.40;98.30;;;;;;5086520;28;20032;-49
2021/08/17 06:37:16;;;;;;;15.20;5.88;;;25.40;98.30;;;;;;5086240;28;20088;-59
2021/08/17 06:39:43;;;;;;;11.55;5.85;;;25.40;98.40;;;;;;5086529;28;20021;-54
2021/08/17 06:42:10;;;;;;;9.90;5.60;;;25.40;98.40;;;;;;5086334;28;20027;-59
2021/08/17 06:44:36;;;;;;;18.02;6.22;;;25.40;98.50;;;;;;5086272;28;20020;-54
2021/08/17 06:47:04;;;;;;;19.58;6.28;;;25.40;98.50;;;;;;5086164;28;20027;-51
2021/08/17 06:49:30;;;;;;;10.38;6.25;;;25.40;98.50;;;;;;5086412;28;20083;-50
2021/08/17 06:51:57;;;;;;;13.05;5.82;;;25.40;98.50;;;;;;5085824;28;20363;-54
2021/08/17 06:54:23;;;;;;;13.07;6.28;;;25.40;98.60;;;;;;5086250;28;20078;-55
2021/08/17 06:56:50;;;;;;;8.90;5.55;;;25.40;98.60;;;;;;5085930;28;20075;-55
2021/08/17 06:59:16;;;;;;;16.63;6.57;;;25.40;98.60;;;;;;5086017;28;20024;-57
2021/08/17 07:01:43;;;;;;;12.15;6.30;;;25.40;98.70;;;;;;5085903;28;20070;-58
2021/08/17 07:04:10;;;;;;;10.93;6.55;;;25.40;98.70;;;;;;5085966;28;20024;-52
2021/08/17 07:06:36;;;;;;;14.10;6.25;;;25.40;98.70;;;;;;5085800;28;20021;-55
2021/08/17 07:09:04;;;;;;;16.15;6.20;;;25.40;98.70;;;;;;5085748;28;20032;-50
2021/08/17 07:11:31;;;;;;;15.23;6.50;;;25.40;98.70;;;;;;5086007;28;20212;-49
2021/08/17 07:13:58;;;;;;;14.55;6.00;;;25.40;98.70;;;;;;5085869;28;20162;-50
2021/08/17 07:16:25;;;;;;;14.55;6.32;;;25.40;98.70;;;;;;5085529;28;20063;-54
2021/08/17 07:18:51;;;;;;;10.32;6.03;;;25.40;98.80;;;;;;5085743;28;20027;-49
2021/08/17 07:21:18;;;;;;;11.93;6.15;;;25.40;98.70;;;;;;5085915;28;20016;-52
2021/08/17 07:23:44;;;;;;;12.82;6.40;;;25.40;98.70;;;;;;5085468;28;20012;-54
2021/08/17 07:26:11;;;;;;;12.43;5.65;;;25.40;98.70;;;;;;5085578;28;20027;-53
2021/08/17 07:28:38;;;;;;;11.25;6.07;;;25.40;98.70;;;;;;5085772;28;20071;-52
2021/08/17 07:31:04;;;;;;;9.80;5.28;;;25.40;98.60;;;;;;5085350;28;20020;-56
2021/08/17 07:33:31;;;;;;;16.23;6.10;;;25.40;98.60;;;;;;5085428;28;20024;-58
2021/08/17 07:35:58;;;;;;;12.07;5.47;;;25.40;98.80;;;;;;5085346;28;20051;-56
2021/08/17 07:38:24;;;;;;;13.95;5.20;;;25.40;98.60;;;;;;5085230;28;20020;-57
2021/08/17 07:40:51;;;;;;;12.38;5.38;;;25.40;98.60;;;;;;5085706;28;20059;-55
2021/08/17 07:43:17;;;;;;;12.85;5.30;;;25.40;98.50;;;;;;5085304;28;20054;-50
2021/08/17 07:45:44;;;;;;;10.80;5.50;;;25.40;98.50;;;;;;5085569;28;20201;-54
2021/08/17 07:48:12;;;;;;;13.27;5.28;;;25.40;98.50;;;;;;5085055;28;20237;-56
2021/08/17 07:50:39;;;;;;;14.80;5.75;;;25.40;98.60;;;;;;5085038;28;20028;-59
2021/08/17 07:53:09;;;;;;;11.93;5.57;;;25.30;98.50;;;;;;5084907;28;20025;-52
2021/08/17 07:55:36;;;;;;;12.73;5.70;;;25.30;98.50;;;;;;5085258;28;20233;-57
2021/08/17 07:58:03;;;;;;;18.00;5.70;;;25.30;98.50;;;;;;5084703;28;20247;-55
2021/08/17 08:00:30;;;;;;;19.45;5.45;;;25.30;98.50;;;;;;5084994;28;20024;-51
2021/08/17 08:02:57;;;;;;;13.07;6.03;;;25.30;98.40;;;;;;5084747;28;20024;-53
2021/08/17 08:05:23;;;;;;;11.57;5.57;;;25.30;98.40;;;;;;5084809;28;20035;-54
2021/08/17 08:07:50;;;;;;;12.43;5.78;;;25.30;98.40;;;;;;5084593;28;20020;-53
2021/08/17 08:10:16;;;;;;;12.32;5.28;;;25.30;98.40;;;;;;5084914;28;20245;-49
2021/08/17 08:12:43;;;;;;;10.13;5.20;;;25.30;98.60;;;;;;5084504;28;20020;-52
2021/08/17 08:15:11;;;;;;;10.80;5.50;;;25.30;98.40;;;;;;5084307;28;20045;-51
2021/08/17 08:17:38;;;;;;;15.50;5.60;;;25.30;98.40;;;;;;5084226;28;20029;-51
2021/08/17 08:20:05;;;;;;;19.52;5.32;;;25.30;98.40;;;;;;5084752;28;20020;-59
2021/08/17 08:22:31;;;;;;;12.00;5.13;;;25.30;98.40;;;;;;5083819;28;20316;-47
2021/08/17 08:24:58;;;;;;;11.13;5.07;;;25.30;98.40;;;;;;5084692;28;20032;-54
2021/08/17 08:27:25;;;;;;;14.43;5.47;;;25.30;98.40;;;;;;5084291;28;20370;-55
2021/08/17 08:29:51;;;;;;;11.55;5.18;;;25.30;98.40;;;;;;5084191;28;20052;-56
2021/08/17 08:32:18;;;;;;;10.27;5.10;;;25.30;98.40;;;;;;5083970;28;20047;-54
2021/08/17 08:34:45;;;;;;;17.73;4.80;;;25.30;98.40;;;;;;5084023;28;20079;-52
2021/08/17 08:37:11;;;;;;;14.93;5.50;;;25.30;98.40;;;;;;5083986;28;20212;-53
2021/08/17 08:39:39;;;;;;;13.15;5.20;;;25.30;98.40;;;;;;5084288;28;20025;-57
2021/08/17 08:42:06;;;;;;;13.02;5.03;;;25.30;98.40;;;;;;5083964;28;20020;-55
2021/08/17 08:44:33;;;;;;;10.70;5.10;;;25.30;98.40;;;;;;5084093;28;20056;-53
2021/08/17 08:47:00;;;;;;;10.30;5.03;;;25.30;98.50;;;;;;5083926;28;20043;-50
2021/08/17 08:49:28;;;;;;;14.48;5.43;;;25.30;98.50;;;;;;5083983;28;20040;-53
2021/08/17 08:51:55;;;;;;;10.77;5.20;;;25.20;98.50;;;;;;5083341;28;20043;-58
2021/08/17 08:54:21;;;;;;;10.55;5.13;;;25.20;98.50;;;;;;5083868;28;20036;-53
2021/08/17 08:56:48;;;;;;;14.63;5.43;;;25.20;98.50;;;;;;5083815;28;20099;-50
2021/08/17 08:59:15;;;;;;;10.45;5.00;;;25.20;98.50;;;;;;5083771;28;20021;-54
2021/08/17 09:01:45;;;;;;;14.90;5.63;;;25.20;98.50;;;;;;5083579;28;20073;-53
2021/08/17 09:04:17;;;;;;;13.80;5.80;;;25.20;98.50;;;;;;5083921;28;20031;-50
2021/08/17 09:06:53;;;;;;;8.30;4.93;;;25.20;98.50;;;;;;5083538;28;20024;-60
2021/08/17 09:09:20;;;;;;;16.65;5.50;;;25.20;98.50;;;;;;5083913;28;20305;-52
2021/08/17 09:11:50;;;;;;;11.20;5.28;;;25.20;98.50;;;;;;5083527;28;20032;-51
2021/08/17 09:14:30;;;;;;;14.15;5.45;;;25.20;98.50;;;;;;5083520;28;20028;-56
2021/08/17 09:16:58;;;;;;;16.65;5.25;;;25.20;98.50;;;;;;5083620;28;20036;-49
2021/08/17 09:19:32;;;;;;;12.15;5.05;;;25.20;98.50;;;;;;5083448;28;20013;-51
2021/08/17 09:22:04;;;;;;;12.18;5.35;;;25.20;98.50;;;;;;5083638;28;20130;-49
2021/08/17 09:24:35;;;;;;;16.35;5.47;;;25.20;98.50;;;;;;5083739;28;20067;-55
2021/08/17 09:27:29;;;;;;;13.85;5.50;;;25.10;98.60;;;;;;5083541;28;20032;-49
2021/08/17 09:30:12;;;;;;;12.05;4.88;;;25.10;98.80;;;;;;5083882;28;20299;-50
2021/08/17 09:32:56;;;;;;;10.55;5.57;;;25.10;98.60;;;;;;5083441;28;20035;-60
2021/08/17 09:35:25;;;;;;;14.65;5.50;;;25.10;98.80;;;;;;5083745;28;20021;-49
2021/08/17 09:38:13;;;;;;;10.48;5.22;;;25.20;98.60;;;;;;5083610;28;20364;-49
2021/08/17 09:40:40;;;;;;;15.50;5.32;;;25.10;98.60;;;;;;5083827;28;20028;-53
2021/08/17 09:43:21;;;;;;;14.30;5.75;;;25.10;98.60;;;;;;5083332;28;20020;-57
2021/08/17 09:45:49;;;;;;;12.55;5.47;;;25.10;98.60;;;;;;5083817;28;20025;-55
2021/08/17 09:48:31;;;;;;;12.10;5.07;;;25.10;98.60;;;;;;5083440;28;20024;-57
2021/08/17 09:50:58;;;;;;;14.38;5.40;;;25.10;98.60;;;;;;5083140;28;20344;-51
2021/08/17 09:53:24;;;;;;;14.55;5.50;;;25.10;98.60;;;;;;5083314;28;20026;-56
2021/08/17 09:55:54;;;;;;;12.15;4.60;;;25.10;98.70;;;;;;5083769;28;20280;-48
2021/08/17 09:58:39;;;;;;;16.90;5.53;;;25.10;98.70;;;;;;5083435;28;20308;-54
2021/08/17 10:01:08;;;;;;;13.65;5.50;;;25.10;98.70;;;;;;5083238;28;20031;-53
2021/08/17 10:03:35;;;;;;;9.05;5.57;;;25.10;98.70;;;;;;5082852;28;20062;-51
2021/08/17 10:06:04;;;;;;;14.43;5.80;;;25.10;98.70;;;;;;5086860;28;20029;-52
2021/08/17 10:08:32;;;;;;;11.43;5.60;;;25.10;98.70;;;;;;5086695;28;20054;-59
2021/08/17 10:11:00;;;;;;;12.57;6.03;;;25.10;98.70;;;;;;5086641;28;20324;-62
2021/08/17 10:13:29;;;;;;;13.75;5.68;;;25.10;98.70;;;;;;5086856;28;20027;-60
2021/08/17 10:15:56;;;;;;;9.63;5.40;;;25.10;98.70;;;;;;5086715;28;20233;-50
2021/08/17 10:18:31;;;;;;;10.90;6.30;;;25.10;98.70;;;;;;5086546;28;20028;-47
2021/08/17 10:21:02;;;;;;;13.35;5.88;;;25.10;98.70;;;;;;5086626;28;20029;-50
2021/08/17 10:23:29;;;;;;;10.30;5.72;;;25.10;98.70;;;;;;5086457;28;20016;-51
2021/08/17 10:25:58;;;;;;;15.68;5.50;;;25.10;98.70;;;;;;5087098;28;20036;-55
2021/08/17 10:28:30;;;;;;;16.50;5.32;;;25.10;98.60;;;;;;5087032;28;20304;-46
2021/08/17 10:31:12;;;;;;;16.75;5.50;;;25.10;98.60;;;;;;5086781;28;20224;-54
2021/08/17 10:33:45;;;;;;;11.48;5.10;;;25.10;98.70;;;;;;5086850;28;20251;-58
2021/08/17 10:36:31;;;;;;;12.65;5.57;;;25.10;98.70;;;;;;5086382;28;20035;-56
2021/08/17 10:38:58;;;;;;;12.00;5.00;;;25.10;98.70;;;;;;5086617;28;20033;-53
2021/08/17 10:41:27;;;;;;;13.85;5.50;;;25.10;98.60;;;;;;5086433;28;20242;-48
2021/08/17 10:43:55;;;;;;;15.15;6.65;;;25.10;98.60;;;;;;5086497;28;20021;-51
2021/08/17 10:46:45;;;;;;;14.65;5.30;;;25.10;98.60;;;;;;5086379;28;20070;-51
2021/08/17 10:49:46;;;;;;;9.18;5.55;;;25.00;98.50;;;;;;5086476;28;20066;-51
2021/08/17 10:52:28;;;;;;;11.98;5.88;;;25.00;98.50;;;;;;5086624;28;20099;-51
2021/08/17 10:55:26;;;;;;;17.70;6.40;;;25.00;98.50;;;;;;5086494;28;20204;-49
2021/08/17 10:58:05;;;;;;;16.58;6.00;;;25.00;98.50;;;;;;5086227;28;20320;-53
2021/08/17 11:00:53;;;;;;;9.57;5.78;;;25.00;98.40;;;;;;5086424;28;20317;-51
2021/08/17 11:03:41;;;;;;;11.70;5.80;;;25.00;98.40;;;;;;5086162;28;20016;-51
2021/08/17 11:06:08;;;;;;;12.10;5.95;;;25.00;98.40;;;;;;5086206;28;20024;-48
2021/08/17 11:08:39;;;;;;;17.08;5.47;;;25.00;98.40;;;;;;5085891;28;20016;-57
2021/08/17 11:11:22;;;;;;;15.93;5.60;;;25.00;98.40;;;;;;5085876;28;20309;-57
2021/08/17 11:14:01;;;;;;;19.13;5.70;;;25.00;98.50;;;;;;5085931;28;20277;-52
2021/08/17 11:16:28;;;;;;;13.48;5.45;;;25.00;98.40;;;;;;5085201;28;20050;-54
2021/08/17 11:19:00;;;;;;;11.60;5.30;;;25.10;98.40;;;;;;5085727;28;20032;-46
2021/08/17 11:21:41;;;;;;;11.40;5.10;;;25.40;97.90;;;;;;5085672;28;20256;-52
2021/08/17 11:24:10;;;;;;;10.57;5.05;;;26.00;97.10;;;;;;5086005;28;20031;-52
2021/08/17 11:26:37;;;;;;;9.43;5.32;;;26.60;96.10;;;;;;5085581;28;20062;-54
2021/08/17 11:29:04;;;;;;;10.07;4.97;;;27.20;94.80;;;;;;5085646;28;20218;-48
2021/08/17 11:31:31;;;;;;;11.80;4.40;;;27.80;93.90;;;;;;5084428;28;20252;-56
2021/08/17 11:34:19;;;;;;;8.60;4.82;;;28.30;92.80;;;;;;5085390;28;20032;-54
2021/08/17 11:37:20;;;;;;;11.32;4.40;;;28.80;92.40;;;;;;5085392;28;20043;-54
2021/08/17 11:39:52;;;;;;;11.02;4.90;;;28.90;91.50;;;;;;5085198;28;20357;-60
2021/08/17 11:42:20;;;;;;;13.18;4.78;;;29.00;91.50;;;;;;5085025;28;20024;-56
2021/08/17 11:44:52;;;;;;;9.95;4.68;;;29.50;90.90;;;;;;5085170;28;20021;-57
2021/08/17 11:47:21;;;;;;;9.23;4.75;;;30.10;89.80;;;;;;5085218;28;20313;-57
2021/08/17 11:49:50;;;;;;;11.60;4.38;;;30.70;88.20;;;;;;5084996;28;20032;-54
2021/08/17 11:52:22;;;;;;;9.98;4.70;;;30.90;86.80;;;;;;5085179;28;20008;-54
2021/08/17 11:54:56;;;;;;;11.80;4.18;;;30.60;87.00;;;;;;5085334;28;20021;-52
2021/08/17 11:57:32;;;;;;;8.48;4.25;;;29.90;88.80;;;;;;5084854;28;20296;-62
2021/08/17 12:00:08;;;;;;;9.43;4.38;;;28.90;91.00;;;;;;5085265;28;20305;-54
2021/08/17 12:02:35;;;;;;;9.63;4.78;;;28.20;92.10;;;;;;5084759;28;20031;-52
2021/08/17 12:05:06;;;;;;;7.30;4.57;;;27.80;92.90;;;;;;5085061;28;20029;-51
2021/08/17 12:07:34;;;;;;;9.35;4.53;;;27.50;93.40;;;;;;5084787;28;20021;-52
2021/08/17 12:10:16;;;;;;;8.60;4.70;;;27.30;93.80;;;;;;5084851;28;20024;-58
2021/08/17 12:13:03;;;;;;;12.20;4.88;;;27.10;94.10;;;;;;5084371;28;20017;-54
2021/08/17 12:15:41;;;;;;;11.73;4.65;;;26.90;94.50;;;;;;5084495;28;20094;-51
2021/08/17 12:18:10;;;;;;;8.95;4.63;;;26.80;94.70;;;;;;5084708;28;20066;-58
2021/08/17 12:20:42;;;;;;;11.23;5.07;;;26.70;94.90;;;;;;5084938;28;20285;-50
2021/08/17 12:23:21;;;;;;;13.32;4.68;;;26.60;95.00;;;;;;5084482;28;20272;-54
2021/08/17 12:25:49;;;;;;;10.63;4.88;;;26.60;95.40;;;;;;5084724;28;20101;-49
2021/08/17 12:28:31;;;;;;;7.53;4.63;;;26.60;95.50;;;;;;5083792;28;20024;-53
2021/08/17 12:31:19;;;;;;;9.57;4.78;;;26.60;95.50;;;;;;5084181;28;20255;-49
2021/08/17 12:33:57;;;;;;;7.00;5.07;;;26.60;95.50;;;;;;5084289;28;20024;-56
2021/08/17 12:36:48;;;;;;;7.75;4.90;;;26.60;95.50;;;;;;5084066;28;20028;-49
2021/08/17 12:39:23;;;;;;;10.55;5.18;;;26.60;95.60;;;;;;5084197;28;20062;-49
2021/08/17 12:41:58;;;;;;;10.40;5.38;;;26.60;95.60;;;;;;5084445;28;20047;-55
2021/08/17 12:44:33;;;;;;;12.20;5.50;;;26.60;95.50;;;;;;5084493;28;20028;-53
2021/08/17 12:47:00;;;;;;;9.80;5.75;;;26.60;95.50;;;;;;5084157;28;20061;-55